Aérodrome :
LOGIN :

S'inscrire | Disclaimer

   EN    FR    IT 

 










Légende :    VFR   VFR Marginal   IFR   IFR Intensif   IFR Très Intensif
Visi : 
Plafond : 
>= 8 km
>= 3000ft
5 à 8 km
1000 à 3000 ft
1500m à 5 km
500 à 1000 ft
800 à 1500m
200 à 500 ft
< 800m
< 200 ft
Symboles :   Orages  Brouillard  Fortes neiges  Fortes précipitations  Vent > 20 kt
SIGMETs :   Divers  Orages  Givrage  Turbulence  Onde Orograph.  Cendres Volcan.







- Altitude de l'aérodrome : 202 ft
- Code IATA : SQZ


EGXP - RAF Scampton

DERNIER METAR :
  • 280550Z AUTO 05012KT 6000 // BKN004/// BKN011/// 12/12 Q1000

METARs EXPIRÉS :
  • 280450Z AUTO 06011KT 5000 // OVC004/// 12/12 Q1000
  • 280350Z AUTO 06011KT 5000 // OVC004/// 12/12 Q1001

TAF TAF EGXP
Valide du 28 à 06h jusqu'au 28 à 15h UTC


280447Z 2806/2815 03012KT 6000 RA BKN003
TEMPO 2806/2810 FEW003 BKN012
PROB40
TEMPO 2806/2815 3000 +RA
BECMG 2810/2813 02018G28KT FEW006 BKN012
PROB30
TEMPO 2813/2815 SCT006
Pas de NOTAMs connus pour ce terrain.
1 SIGMET publié pour la FIR London (EGTT) :
 
Orages noyés dans la masse
EGTT SIGMET 01 VALID 280600/280800 EGRR
EGTT LONDON FIR EMBD TS OBS WI N5255 E00110 - N5348 E00110 - N5349 E00356 - N5255 E00309 - N5255 E00110 TOP FL370 MOV NNW 15KT NC=



MET'MAP, la Météo Aéronautique d'un coup d'oeil ! - Copyright ORBIFLY Décembre 2007 - Disclaimer

ORBIFLY MET'MAP TEAM :

Programmation & Développement : Alexandra Zaïnal
Conception & Développement : Baudouin d'Aumeries
Co-Programmation & Développement : Marc-Olivier Méhu
Soutien technique & logistique : Manuel Goepfert

Contact : metmap@orbifly.com




SOURCES & CREDITS :

   NOAA